sensor_id;sensor_type;location;lat;lon;timestamp;pressure;altitude;pressure_sealevel;temperature;humidity
27840;BME280;15207;42.182;24.308;2022-07-29T00:00:43;99283.97;;;22.93;70.68
27840;BME280;15207;42.182;24.308;2022-07-29T00:03:11;99290.09;;;22.95;71.16
27840;BME280;15207;42.182;24.308;2022-07-29T00:05:41;99287.28;;;22.81;71.88
27840;BME280;15207;42.182;24.308;2022-07-29T00:08:07;99294.31;;;22.62;72.64
27840;BME280;15207;42.182;24.308;2022-07-29T00:10:34;99295.50;;;22.53;72.76
27840;BME280;15207;42.182;24.308;2022-07-29T00:13:00;99292.09;;;22.51;72.28
27840;BME280;15207;42.182;24.308;2022-07-29T00:15:25;99298.38;;;22.44;72.36
27840;BME280;15207;42.182;24.308;2022-07-29T00:17:51;99297.38;;;22.52;72.40
27840;BME280;15207;42.182;24.308;2022-07-29T00:20:17;99298.56;;;22.43;72.50
27840;BME280;15207;42.182;24.308;2022-07-29T00:22:42;99291.78;;;22.32;72.83
27840;BME280;15207;42.182;24.308;2022-07-29T00:25:08;99290.63;;;22.48;71.90
27840;BME280;15207;42.182;24.308;2022-07-29T00:27:35;99285.16;;;22.48;71.92
27840;BME280;15207;42.182;24.308;2022-07-29T00:30:02;99290.78;;;22.40;72.06
27840;BME280;15207;42.182;24.308;2022-07-29T00:32:28;99288.25;;;22.38;71.59
27840;BME280;15207;42.182;24.308;2022-07-29T00:34:53;99285.53;;;22.38;71.42
27840;BME280;15207;42.182;24.308;2022-07-29T00:37:37;99286.16;;;22.40;71.53
27840;BME280;15207;42.182;24.308;2022-07-29T00:40:03;99281.94;;;22.38;71.58
27840;BME280;15207;42.182;24.308;2022-07-29T00:42:29;99291.28;;;22.22;73.33
27840;BME280;15207;42.182;24.308;2022-07-29T00:44:54;99291.56;;;22.05;74.03
27840;BME280;15207;42.182;24.308;2022-07-29T00:47:20;99286.72;;;22.00;73.88
27840;BME280;15207;42.182;24.308;2022-07-29T00:49:46;99282.88;;;21.95;73.41
27840;BME280;15207;42.182;24.308;2022-07-29T00:52:12;99284.25;;;21.84;73.65
27840;BME280;15207;42.182;24.308;2022-07-29T00:54:39;99274.81;;;21.79;73.66
27840;BME280;15207;42.182;24.308;2022-07-29T00:57:06;99287.13;;;21.75;73.27
27840;BME280;15207;42.182;24.308;2022-07-29T00:59:31;99283.09;;;21.71;73.64
27840;BME280;15207;42.182;24.308;2022-07-29T01:01:57;99289.31;;;21.65;73.72
27840;BME280;15207;42.182;24.308;2022-07-29T01:04:22;99286.31;;;21.60;74.14
27840;BME280;15207;42.182;24.308;2022-07-29T01:06:48;99283.72;;;21.51;74.51
27840;BME280;15207;42.182;24.308;2022-07-29T01:09:14;99290.09;;;21.59;74.34
27840;BME280;15207;42.182;24.308;2022-07-29T01:11:40;99279.84;;;21.61;73.46
27840;BME280;15207;42.182;24.308;2022-07-29T01:14:08;99282.66;;;21.52;74.13
27840;BME280;15207;42.182;24.308;2022-07-29T01:16:59;99285.31;;;21.46;74.97
27840;BME280;15207;42.182;24.308;2022-07-29T01:25:22;99278.97;;;21.38;74.83
27840;BME280;15207;42.182;24.308;2022-07-29T01:30:26;99274.84;;;21.43;74.53
27840;BME280;15207;42.182;24.308;2022-07-29T01:33:02;99272.72;;;21.23;74.94
27840;BME280;15207;42.182;24.308;2022-07-29T01:35:39;99279.00;;;21.23;74.39
27840;BME280;15207;42.182;24.308;2022-07-29T01:38:12;99268.97;;;21.24;74.26
27840;BME280;15207;42.182;24.308;2022-07-29T01:40:49;99271.78;;;21.31;74.19
27840;BME280;15207;42.182;24.308;2022-07-29T01:43:19;99274.88;;;21.27;74.50
27840;BME280;15207;42.182;24.308;2022-07-29T01:45:48;99274.50;;;21.31;75.48
27840;BME280;15207;42.182;24.308;2022-07-29T01:50:54;99265.81;;;21.05;75.89
27840;BME280;15207;42.182;24.308;2022-07-29T01:53:26;99273.53;;;21.01;75.99
27840;BME280;15207;42.182;24.308;2022-07-29T01:55:55;99274.56;;;21.00;76.67
27840;BME280;15207;42.182;24.308;2022-07-29T01:58:22;99276.34;;;20.93;77.54
27840;BME280;15207;42.182;24.308;2022-07-29T02:00:50;99277.47;;;20.84;77.34
27840;BME280;15207;42.182;24.308;2022-07-29T02:03:18;99276.81;;;20.82;77.48
27840;BME280;15207;42.182;24.308;2022-07-29T02:05:45;99273.72;;;20.85;78.14
27840;BME280;15207;42.182;24.308;2022-07-29T02:08:12;99269.59;;;20.74;77.73
27840;BME280;15207;42.182;24.308;2022-07-29T02:10:39;99269.34;;;20.54;78.05
27840;BME280;15207;42.182;24.308;2022-07-29T02:13:06;99265.44;;;20.33;80.10
27840;BME280;15207;42.182;24.308;2022-07-29T02:15:35;99268.94;;;20.42;80.11
27840;BME280;15207;42.182;24.308;2022-07-29T02:18:07;99262.56;;;20.50;79.55
27840;BME280;15207;42.182;24.308;2022-07-29T02:20:34;99264.06;;;20.52;79.55
27840;BME280;15207;42.182;24.308;2022-07-29T02:23:02;99267.63;;;20.53;79.62
27840;BME280;15207;42.182;24.308;2022-07-29T02:25:27;99260.97;;;20.55;79.36
27840;BME280;15207;42.182;24.308;2022-07-29T02:27:55;99262.28;;;20.59;78.95
27840;BME280;15207;42.182;24.308;2022-07-29T02:30:22;99263.13;;;20.60;78.65
27840;BME280;15207;42.182;24.308;2022-07-29T02:32:50;99267.91;;;20.73;78.99
27840;BME280;15207;42.182;24.308;2022-07-29T02:35:17;99261.44;;;20.59;79.01
27840;BME280;15207;42.182;24.308;2022-07-29T02:37:45;99257.69;;;20.45;79.64
27840;BME280;15207;42.182;24.308;2022-07-29T02:40:33;99266.69;;;20.45;79.98
27840;BME280;15207;42.182;24.308;2022-07-29T02:43:01;99256.00;;;20.44;79.88
27840;BME280;15207;42.182;24.308;2022-07-29T02:45:28;99257.97;;;20.35;80.51
27840;BME280;15207;42.182;24.308;2022-07-29T02:47:55;99252.16;;;20.23;81.74
27840;BME280;15207;42.182;24.308;2022-07-29T02:50:36;99262.09;;;20.16;82.61
27840;BME280;15207;42.182;24.308;2022-07-29T02:53:14;99251.56;;;20.13;83.14
27840;BME280;15207;42.182;24.308;2022-07-29T02:55:47;99263.19;;;20.21;83.54
27840;BME280;15207;42.182;24.308;2022-07-29T02:58:33;99261.34;;;20.22;84.45
27840;BME280;15207;42.182;24.308;2022-07-29T03:01:06;99260.59;;;20.28;85.01
27840;BME280;15207;42.182;24.308;2022-07-29T03:03:36;99263.59;;;20.33;85.62
27840;BME280;15207;42.182;24.308;2022-07-29T03:06:03;99258.63;;;20.37;85.15
27840;BME280;15207;42.182;24.308;2022-07-29T03:08:31;99269.22;;;20.32;85.74
27840;BME280;15207;42.182;24.308;2022-07-29T03:10:58;99265.38;;;20.26;86.24
27840;BME280;15207;42.182;24.308;2022-07-29T03:13:26;99270.59;;;20.28;85.84
27840;BME280;15207;42.182;24.308;2022-07-29T03:15:53;99269.88;;;20.34;85.90
27840;BME280;15207;42.182;24.308;2022-07-29T03:18:20;99274.28;;;20.35;86.13
27840;BME280;15207;42.182;24.308;2022-07-29T03:20:46;99270.53;;;20.36;85.37
27840;BME280;15207;42.182;24.308;2022-07-29T03:23:18;99270.34;;;20.38;86.42
27840;BME280;15207;42.182;24.308;2022-07-29T03:25:44;99274.94;;;20.37;86.60
27840;BME280;15207;42.182;24.308;2022-07-29T03:28:10;99270.34;;;20.38;86.47
27840;BME280;15207;42.182;24.308;2022-07-29T03:30:35;99283.75;;;20.39;86.34
27840;BME280;15207;42.182;24.308;2022-07-29T03:33:01;99281.41;;;20.36;86.48
27840;BME280;15207;42.182;24.308;2022-07-29T03:35:26;99281.41;;;20.36;86.52
27840;BME280;15207;42.182;24.308;2022-07-29T03:37:52;99276.31;;;20.33;85.97
27840;BME280;15207;42.182;24.308;2022-07-29T03:40:26;99284.75;;;20.23;86.85
27840;BME280;15207;42.182;24.308;2022-07-29T03:42:53;99290.78;;;20.18;87.18
27840;BME280;15207;42.182;24.308;2022-07-29T03:45:20;99294.13;;;20.20;87.08
27840;BME280;15207;42.182;24.308;2022-07-29T03:47:51;99296.84;;;20.20;86.66
27840;BME280;15207;42.182;24.308;2022-07-29T03:50:21;99285.81;;;20.22;86.82
27840;BME280;15207;42.182;24.308;2022-07-29T03:52:47;99294.13;;;20.20;86.95
27840;BME280;15207;42.182;24.308;2022-07-29T03:55:14;99286.19;;;20.34;86.42
27840;BME280;15207;42.182;24.308;2022-07-29T03:57:40;99284.78;;;20.38;85.62
27840;BME280;15207;42.182;24.308;2022-07-29T04:00:07;99284.88;;;20.45;85.39
27840;BME280;15207;42.182;24.308;2022-07-29T04:02:33;99292.50;;;20.50;85.68
27840;BME280;15207;42.182;24.308;2022-07-29T04:04:59;99294.00;;;20.52;85.60
27840;BME280;15207;42.182;24.308;2022-07-29T04:07:25;99297.63;;;20.59;84.99
27840;BME280;15207;42.182;24.308;2022-07-29T04:09:50;99299.06;;;20.70;84.63
27840;BME280;15207;42.182;24.308;2022-07-29T04:12:16;99299.91;;;20.71;84.62
27840;BME280;15207;42.182;24.308;2022-07-29T04:14:41;99299.91;;;20.71;84.90
27840;BME280;15207;42.182;24.308;2022-07-29T04:17:07;99300.06;;;20.84;84.38
27840;BME280;15207;42.182;24.308;2022-07-29T04:19:33;99299.16;;;20.92;83.01
27840;BME280;15207;42.182;24.308;2022-07-29T04:21:59;99297.16;;;21.16;82.27
27840;BME280;15207;42.182;24.308;2022-07-29T04:24:26;99306.84;;;21.40;80.95
27840;BME280;15207;42.182;24.308;2022-07-29T04:26:51;99298.72;;;21.62;80.14
27840;BME280;15207;42.182;24.308;2022-07-29T04:29:17;99306.66;;;21.79;78.69
27840;BME280;15207;42.182;24.308;2022-07-29T04:31:43;99310.16;;;21.95;78.21
27840;BME280;15207;42.182;24.308;2022-07-29T04:34:09;99301.72;;;22.18;76.59
27840;BME280;15207;42.182;24.308;2022-07-29T04:36:35;99296.00;;;22.35;75.30
27840;BME280;15207;42.182;24.308;2022-07-29T04:39:01;99304.53;;;22.53;74.42
27840;BME280;15207;42.182;24.308;2022-07-29T04:41:27;99295.84;;;22.78;73.03
27840;BME280;15207;42.182;24.308;2022-07-29T04:43:53;99305.63;;;23.01;72.31
27840;BME280;15207;42.182;24.308;2022-07-29T04:46:19;99301.75;;;23.31;71.13
27840;BME280;15207;42.182;24.308;2022-07-29T04:48:47;99307.69;;;23.41;70.17
27840;BME280;15207;42.182;24.308;2022-07-29T04:51:16;99308.56;;;23.48;69.89
27840;BME280;15207;42.182;24.308;2022-07-29T04:53:41;99311.97;;;23.64;69.81
27840;BME280;15207;42.182;24.308;2022-07-29T04:56:07;99314.03;;;23.62;69.43
27840;BME280;15207;42.182;24.308;2022-07-29T04:58:36;99315.34;;;23.80;69.12
27840;BME280;15207;42.182;24.308;2022-07-29T05:01:02;99302.13;;;24.03;68.22
27840;BME280;15207;42.182;24.308;2022-07-29T05:03:28;99314.13;;;24.29;67.63
27840;BME280;15207;42.182;24.308;2022-07-29T05:05:54;99309.06;;;24.40;66.46
27840;BME280;15207;42.182;24.308;2022-07-29T05:08:19;99305.28;;;24.48;66.60
27840;BME280;15207;42.182;24.308;2022-07-29T05:10:45;99304.88;;;24.37;67.08
27840;BME280;15207;42.182;24.308;2022-07-29T05:13:11;99303.81;;;24.38;66.59
27840;BME280;15207;42.182;24.308;2022-07-29T05:15:37;99306.94;;;24.55;66.64
27840;BME280;15207;42.182;24.308;2022-07-29T05:18:03;99307.34;;;24.59;65.94
27840;BME280;15207;42.182;24.308;2022-07-29T05:20:29;99307.75;;;24.69;66.69
27840;BME280;15207;42.182;24.308;2022-07-29T05:22:56;99306.44;;;24.99;65.76
27840;BME280;15207;42.182;24.308;2022-07-29T05:25:23;99303.59;;;25.19;63.95
27840;BME280;15207;42.182;24.308;2022-07-29T05:27:49;99300.66;;;25.14;64.64
27840;BME280;15207;42.182;24.308;2022-07-29T05:30:15;99300.94;;;25.06;65.11
27840;BME280;15207;42.182;24.308;2022-07-29T05:32:41;99309.44;;;25.30;63.00
27840;BME280;15207;42.182;24.308;2022-07-29T05:35:07;99310.59;;;25.54;63.09
27840;BME280;15207;42.182;24.308;2022-07-29T05:37:33;99318.81;;;25.61;62.40
27840;BME280;15207;42.182;24.308;2022-07-29T05:39:59;99306.03;;;25.80;60.87
27840;BME280;15207;42.182;24.308;2022-07-29T05:42:25;99312.06;;;25.89;61.24
27840;BME280;15207;42.182;24.308;2022-07-29T05:44:51;99314.22;;;25.87;61.03
27840;BME280;15207;42.182;24.308;2022-07-29T05:47:17;99318.19;;;25.91;60.87
27840;BME280;15207;42.182;24.308;2022-07-29T05:49:42;99320.59;;;26.06;59.69
27840;BME280;15207;42.182;24.308;2022-07-29T05:52:08;99324.84;;;26.02;58.16
27840;BME280;15207;42.182;24.308;2022-07-29T05:54:34;99329.41;;;25.83;59.02
27840;BME280;15207;42.182;24.308;2022-07-29T05:56:59;99324.31;;;25.86;57.47
27840;BME280;15207;42.182;24.308;2022-07-29T05:59:25;99326.69;;;25.83;55.29
27840;BME280;15207;42.182;24.308;2022-07-29T06:01:50;99327.72;;;26.14;56.08
27840;BME280;15207;42.182;24.308;2022-07-29T06:04:16;99322.84;;;26.41;53.18
27840;BME280;15207;42.182;24.308;2022-07-29T06:06:41;99322.59;;;26.18;52.37
27840;BME280;15207;42.182;24.308;2022-07-29T06:09:07;99323.72;;;26.42;52.34
27840;BME280;15207;42.182;24.308;2022-07-29T06:11:33;99315.19;;;26.88;51.06
27840;BME280;15207;42.182;24.308;2022-07-29T06:13:58;99315.75;;;27.15;49.72
27840;BME280;15207;42.182;24.308;2022-07-29T06:16:24;99324.38;;;27.19;49.62
27840;BME280;15207;42.182;24.308;2022-07-29T06:18:49;99322.19;;;27.40;50.33
27840;BME280;15207;42.182;24.308;2022-07-29T06:21:15;99324.00;;;27.65;50.20
27840;BME280;15207;42.182;24.308;2022-07-29T06:23:40;99330.72;;;27.69;49.69
27840;BME280;15207;42.182;24.308;2022-07-29T06:26:06;99326.22;;;27.56;48.74
27840;BME280;15207;42.182;24.308;2022-07-29T06:28:32;99326.22;;;27.56;49.74
27840;BME280;15207;42.182;24.308;2022-07-29T06:30:59;99326.66;;;27.53;48.79
27840;BME280;15207;42.182;24.308;2022-07-29T06:33:25;99331.41;;;27.64;47.86
27840;BME280;15207;42.182;24.308;2022-07-29T06:35:50;99330.25;;;27.72;48.54
27840;BME280;15207;42.182;24.308;2022-07-29T06:38:16;99328.25;;;27.91;48.38
27840;BME280;15207;42.182;24.308;2022-07-29T06:40:45;99324.38;;;28.23;47.21
27840;BME280;15207;42.182;24.308;2022-07-29T06:46:03;99329.22;;;27.97;49.24
27840;BME280;15207;42.182;24.308;2022-07-29T06:48:29;99317.75;;;28.12;48.47
27840;BME280;15207;42.182;24.308;2022-07-29T06:50:55;99320.72;;;27.98;48.74
27840;BME280;15207;42.182;24.308;2022-07-29T06:53:21;99313.84;;;27.65;50.00
27840;BME280;15207;42.182;24.308;2022-07-29T06:55:46;99318.44;;;27.83;49.90
27840;BME280;15207;42.182;24.308;2022-07-29T06:58:12;99309.59;;;27.93;48.91
27840;BME280;15207;42.182;24.308;2022-07-29T07:00:39;99315.81;;;27.89;49.40
27840;BME280;15207;42.182;24.308;2022-07-29T07:03:04;99310.91;;;27.91;49.29
27840;BME280;15207;42.182;24.308;2022-07-29T07:05:30;99303.94;;;27.64;51.10
27840;BME280;15207;42.182;24.308;2022-07-29T07:07:55;99303.19;;;28.11;49.67
27840;BME280;15207;42.182;24.308;2022-07-29T07:10:21;99302.97;;;28.49;48.57
27840;BME280;15207;42.182;24.308;2022-07-29T07:12:46;99308.81;;;28.64;48.15
27840;BME280;15207;42.182;24.308;2022-07-29T07:15:12;99304.75;;;28.55;47.86
27840;BME280;15207;42.182;24.308;2022-07-29T07:17:37;99307.94;;;28.04;49.44
27840;BME280;15207;42.182;24.308;2022-07-29T07:20:04;99300.91;;;28.20;48.38
27840;BME280;15207;42.182;24.308;2022-07-29T07:22:30;99298.72;;;28.10;49.47
27840;BME280;15207;42.182;24.308;2022-07-29T07:24:56;99304.50;;;28.69;47.91
27840;BME280;15207;42.182;24.308;2022-07-29T07:27:22;99297.53;;;29.02;46.91
27840;BME280;15207;42.182;24.308;2022-07-29T07:29:47;99301.75;;;29.22;46.08
27840;BME280;15207;42.182;24.308;2022-07-29T07:32:13;99300.56;;;28.88;46.88
27840;BME280;15207;42.182;24.308;2022-07-29T07:34:42;99294.63;;;29.09;46.84
27840;BME280;15207;42.182;24.308;2022-07-29T07:37:07;99305.13;;;29.24;46.33
27840;BME280;15207;42.182;24.308;2022-07-29T07:39:33;99292.91;;;29.20;45.79
27840;BME280;15207;42.182;24.308;2022-07-29T07:41:59;99297.28;;;28.91;46.94
27840;BME280;15207;42.182;24.308;2022-07-29T07:44:24;99302.44;;;28.76;47.29
27840;BME280;15207;42.182;24.308;2022-07-29T07:46:50;99289.84;;;29.04;46.84
27840;BME280;15207;42.182;24.308;2022-07-29T07:49:15;99295.81;;;29.54;45.50
27840;BME280;15207;42.182;24.308;2022-07-29T07:51:43;99299.25;;;29.78;45.14
27840;BME280;15207;42.182;24.308;2022-07-29T07:54:09;99299.66;;;29.53;45.41
27840;BME280;15207;42.182;24.308;2022-07-29T07:56:35;99294.00;;;29.48;45.91
27840;BME280;15207;42.182;24.308;2022-07-29T07:59:00;99296.63;;;29.54;45.49
27840;BME280;15207;42.182;24.308;2022-07-29T08:01:26;99295.69;;;30.12;44.47
27840;BME280;15207;42.182;24.308;2022-07-29T08:03:51;99291.16;;;30.40;42.71
27840;BME280;15207;42.182;24.308;2022-07-29T08:06:17;99284.75;;;30.74;42.70
27840;BME280;15207;42.182;24.308;2022-07-29T08:08:42;99292.78;;;30.75;42.66
27840;BME280;15207;42.182;24.308;2022-07-29T08:11:08;99288.06;;;30.93;42.09
27840;BME280;15207;42.182;24.308;2022-07-29T08:13:33;99291.78;;;30.65;42.28
27840;BME280;15207;42.182;24.308;2022-07-29T08:15:59;99285.91;;;30.78;41.31
27840;BME280;15207;42.182;24.308;2022-07-29T08:18:31;99283.41;;;30.77;40.23
27840;BME280;15207;42.182;24.308;2022-07-29T08:20:57;99283.03;;;30.51;40.56
27840;BME280;15207;42.182;24.308;2022-07-29T08:23:23;99288.13;;;30.59;40.68
27840;BME280;15207;42.182;24.308;2022-07-29T08:25:49;99281.66;;;30.70;40.77
27840;BME280;15207;42.182;24.308;2022-07-29T08:28:15;99284.97;;;29.99;42.28
27840;BME280;15207;42.182;24.308;2022-07-29T08:30:41;99278.91;;;29.21;43.85
27840;BME280;15207;42.182;24.308;2022-07-29T08:33:06;99282.03;;;29.42;44.21
27840;BME280;15207;42.182;24.308;2022-07-29T08:35:32;99288.00;;;29.97;42.87
27840;BME280;15207;42.182;24.308;2022-07-29T08:37:57;99274.81;;;30.56;41.31
27840;BME280;15207;42.182;24.308;2022-07-29T08:40:23;99274.00;;;30.55;40.43
27840;BME280;15207;42.182;24.308;2022-07-29T08:42:50;99270.56;;;29.79;40.98
27840;BME280;15207;42.182;24.308;2022-07-29T08:45:16;99274.50;;;29.66;40.10
27840;BME280;15207;42.182;24.308;2022-07-29T08:47:44;99276.84;;;29.75;41.38
27840;BME280;15207;42.182;24.308;2022-07-29T08:50:10;99267.97;;;29.55;40.46
27840;BME280;15207;42.182;24.308;2022-07-29T08:52:38;99270.91;;;29.37;42.24
27840;BME280;15207;42.182;24.308;2022-07-29T08:55:08;99266.22;;;29.66;42.10
27840;BME280;15207;42.182;24.308;2022-07-29T08:57:35;99264.16;;;29.91;41.20
27840;BME280;15207;42.182;24.308;2022-07-29T09:00:04;99266.31;;;30.06;39.47
27840;BME280;15207;42.182;24.308;2022-07-29T09:02:32;99261.25;;;29.80;40.71
27840;BME280;15207;42.182;24.308;2022-07-29T09:05:01;99261.06;;;29.70;41.08
27840;BME280;15207;42.182;24.308;2022-07-29T09:07:28;99261.31;;;29.86;39.91
27840;BME280;15207;42.182;24.308;2022-07-29T09:09:53;99249.28;;;30.26;40.07
27840;BME280;15207;42.182;24.308;2022-07-29T09:12:19;99255.03;;;30.07;40.28
27840;BME280;15207;42.182;24.308;2022-07-29T09:14:47;99245.03;;;30.18;40.88
27840;BME280;15207;42.182;24.308;2022-07-29T09:17:14;99252.84;;;30.09;40.17
27840;BME280;15207;42.182;24.308;2022-07-29T09:19:42;99244.84;;;29.91;39.17
27840;BME280;15207;42.182;24.308;2022-07-29T09:22:07;99242.25;;;29.67;39.42
27840;BME280;15207;42.182;24.308;2022-07-29T09:27:21;99239.69;;;30.12;39.70
27840;BME280;15207;42.182;24.308;2022-07-29T09:29:58;99234.91;;;30.46;39.20
27840;BME280;15207;42.182;24.308;2022-07-29T09:32:25;99235.59;;;30.98;38.16
27840;BME280;15207;42.182;24.308;2022-07-29T09:35:29;99241.38;;;30.97;37.56
27840;BME280;15207;42.182;24.308;2022-07-29T09:37:55;99232.88;;;30.59;39.19
27840;BME280;15207;42.182;24.308;2022-07-29T09:40:28;99227.13;;;31.05;38.97
27840;BME280;15207;42.182;24.308;2022-07-29T09:42:54;99231.00;;;31.09;37.11
27840;BME280;15207;42.182;24.308;2022-07-29T09:45:33;99219.34;;;30.80;37.52
27840;BME280;15207;42.182;24.308;2022-07-29T09:47:59;99219.66;;;30.83;38.25
27840;BME280;15207;42.182;24.308;2022-07-29T09:50:41;99224.16;;;30.90;38.70
27840;BME280;15207;42.182;24.308;2022-07-29T09:53:08;99223.66;;;30.70;38.05
27840;BME280;15207;42.182;24.308;2022-07-29T09:55:48;99217.94;;;30.77;37.56
27840;BME280;15207;42.182;24.308;2022-07-29T09:58:17;99210.31;;;30.67;37.48
27840;BME280;15207;42.182;24.308;2022-07-29T10:00:44;99216.91;;;30.83;35.99
27840;BME280;15207;42.182;24.308;2022-07-29T10:03:11;99216.09;;;30.83;35.08
27840;BME280;15207;42.182;24.308;2022-07-29T10:05:37;99212.69;;;30.58;36.60
27840;BME280;15207;42.182;24.308;2022-07-29T10:08:04;99210.53;;;30.38;37.26
27840;BME280;15207;42.182;24.308;2022-07-29T10:10:34;99208.03;;;30.59;37.39
27840;BME280;15207;42.182;24.308;2022-07-29T10:13:12;99214.78;;;30.91;36.77
27840;BME280;15207;42.182;24.308;2022-07-29T10:15:40;99208.25;;;30.74;36.69
27840;BME280;15207;42.182;24.308;2022-07-29T10:18:07;99208.25;;;30.74;36.24
27840;BME280;15207;42.182;24.308;2022-07-29T10:20:34;99197.69;;;30.71;36.73
27840;BME280;15207;42.182;24.308;2022-07-29T10:23:00;99198.22;;;31.18;35.10
27840;BME280;15207;42.182;24.308;2022-07-29T10:25:26;99198.06;;;31.30;34.81
27840;BME280;15207;42.182;24.308;2022-07-29T10:27:52;99198.56;;;31.27;34.30
27840;BME280;15207;42.182;24.308;2022-07-29T10:30:22;99179.22;;;31.27;33.71
27840;BME280;15207;42.182;24.308;2022-07-29T10:43:58;99168.94;;;31.22;32.42
27840;BME280;15207;42.182;24.308;2022-07-29T10:46:25;99163.44;;;31.55;31.82
27840;BME280;15207;42.182;24.308;2022-07-29T11:07:32;99131.97;;;31.99;30.50
27840;BME280;15207;42.182;24.308;2022-07-29T11:15:06;99128.41;;;32.09;30.71
27840;BME280;15207;42.182;24.308;2022-07-29T11:20:37;99118.78;;;32.27;30.91
27840;BME280;15207;42.182;24.308;2022-07-29T11:26:29;99112.16;;;32.28;29.92
27840;BME280;15207;42.182;24.308;2022-07-29T11:31:47;99109.53;;;32.65;29.79
27840;BME280;15207;42.182;24.308;2022-07-29T11:34:30;99113.69;;;32.62;29.26
27840;BME280;15207;42.182;24.308;2022-07-29T11:47:52;99094.56;;;32.66;29.25
27840;BME280;15207;42.182;24.308;2022-07-29T11:52:58;99080.34;;;32.36;28.37
27840;BME280;15207;42.182;24.308;2022-07-29T11:55:24;99093.06;;;32.32;28.64
27840;BME280;15207;42.182;24.308;2022-07-29T11:57:53;99077.47;;;32.15;29.01
27840;BME280;15207;42.182;24.308;2022-07-29T12:02:47;99079.78;;;32.34;28.76
27840;BME280;15207;42.182;24.308;2022-07-29T12:05:13;99074.91;;;32.57;28.70
27840;BME280;15207;42.182;24.308;2022-07-29T12:07:39;99074.66;;;32.79;29.17
27840;BME280;15207;42.182;24.308;2022-07-29T12:10:07;99076.38;;;33.06;27.73
27840;BME280;15207;42.182;24.308;2022-07-29T12:12:34;99077.19;;;33.17;26.93
27840;BME280;15207;42.182;24.308;2022-07-29T12:17:38;99068.28;;;33.36;25.66
27840;BME280;15207;42.182;24.308;2022-07-29T12:20:05;99073.03;;;33.15;25.72
27840;BME280;15207;42.182;24.308;2022-07-29T12:22:33;99061.63;;;32.85;25.87
27840;BME280;15207;42.182;24.308;2022-07-29T12:25:10;99074.66;;;32.95;26.15
27840;BME280;15207;42.182;24.308;2022-07-29T12:27:37;99056.66;;;32.92;26.91
27840;BME280;15207;42.182;24.308;2022-07-29T12:30:08;99062.19;;;32.87;25.32
27840;BME280;15207;42.182;24.308;2022-07-29T12:32:37;99066.03;;;32.76;25.62
27840;BME280;15207;42.182;24.308;2022-07-29T12:35:10;99056.91;;;32.70;25.97
27840;BME280;15207;42.182;24.308;2022-07-29T12:37:38;99053.03;;;32.87;26.58
27840;BME280;15207;42.182;24.308;2022-07-29T12:40:05;99050.53;;;32.85;26.48
27840;BME280;15207;42.182;24.308;2022-07-29T12:42:32;99044.19;;;32.95;26.02
27840;BME280;15207;42.182;24.308;2022-07-29T12:44:58;99051.69;;;33.00;25.49
27840;BME280;15207;42.182;24.308;2022-07-29T12:47:24;99044.72;;;32.81;26.39
27840;BME280;15207;42.182;24.308;2022-07-29T12:49:50;99044.19;;;32.90;26.38
27840;BME280;15207;42.182;24.308;2022-07-29T12:52:30;99040.56;;;32.79;26.29
27840;BME280;15207;42.182;24.308;2022-07-29T12:54:57;99031.41;;;32.78;26.66
27840;BME280;15207;42.182;24.308;2022-07-29T12:57:23;99041.16;;;33.07;26.79
27840;BME280;15207;42.182;24.308;2022-07-29T13:02:35;99023.97;;;33.05;26.18
27840;BME280;15207;42.182;24.308;2022-07-29T13:05:01;99031.72;;;33.18;25.10
27840;BME280;15207;42.182;24.308;2022-07-29T13:07:28;99028.63;;;33.46;25.24
27840;BME280;15207;42.182;24.308;2022-07-29T13:10:27;99014.25;;;33.18;25.40
27840;BME280;15207;42.182;24.308;2022-07-29T13:13:11;99017.84;;;32.92;25.84
27840;BME280;15207;42.182;24.308;2022-07-29T13:15:38;99020.88;;;32.91;26.72
27840;BME280;15207;42.182;24.308;2022-07-29T13:20:53;99008.72;;;33.02;26.47
27840;BME280;15207;42.182;24.308;2022-07-29T13:23:19;99013.13;;;33.08;27.48
27840;BME280;15207;42.182;24.308;2022-07-29T13:25:44;98997.03;;;33.31;27.39
27840;BME280;15207;42.182;24.308;2022-07-29T13:28:10;98996.22;;;33.20;27.15
27840;BME280;15207;42.182;24.308;2022-07-29T13:30:37;98998.41;;;33.34;26.59
27840;BME280;15207;42.182;24.308;2022-07-29T13:33:04;98995.09;;;33.32;26.74
27840;BME280;15207;42.182;24.308;2022-07-29T13:35:29;98998.97;;;33.25;27.20
27840;BME280;15207;42.182;24.308;2022-07-29T13:37:55;98982.06;;;33.22;27.14
27840;BME280;15207;42.182;24.308;2022-07-29T13:40:21;98984.84;;;33.17;28.19
27840;BME280;15207;42.182;24.308;2022-07-29T13:42:47;98981.56;;;33.09;27.95
27840;BME280;15207;42.182;24.308;2022-07-29T13:45:13;98983.75;;;33.02;28.13
27840;BME280;15207;42.182;24.308;2022-07-29T13:47:39;98978.19;;;33.23;28.16
27840;BME280;15207;42.182;24.308;2022-07-29T13:50:05;98974.34;;;33.14;28.86
27840;BME280;15207;42.182;24.308;2022-07-29T13:52:31;98972.34;;;33.30;28.79
27840;BME280;15207;42.182;24.308;2022-07-29T13:54:57;98972.88;;;33.42;27.90
27840;BME280;15207;42.182;24.308;2022-07-29T13:57:23;98969.56;;;33.35;28.41
27840;BME280;15207;42.182;24.308;2022-07-29T13:59:48;98966.56;;;33.16;28.94
27840;BME280;15207;42.182;24.308;2022-07-29T14:02:16;98974.03;;;33.15;29.20
27840;BME280;15207;42.182;24.308;2022-07-29T14:04:42;98957.97;;;33.22;29.74
27840;BME280;15207;42.182;24.308;2022-07-29T14:07:07;98950.97;;;33.46;29.02
27840;BME280;15207;42.182;24.308;2022-07-29T14:09:33;98956.25;;;33.42;29.35
27840;BME280;15207;42.182;24.308;2022-07-29T14:11:59;98954.56;;;33.57;29.21
27840;BME280;15207;42.182;24.308;2022-07-29T14:14:24;98959.28;;;33.56;30.05
27840;BME280;15207;42.182;24.308;2022-07-29T14:16:50;98948.72;;;33.53;29.33